Time;durP1;ratioP1;P1;durP2;ratioP2;P2;SDS_P1;SDS_P2;PMS_P1;PMS_P2;Temp;Humidity;BMP_temperature;BMP_pressure;BME280_temperature;BME280_humidity;BME280_pressure;Samples;Min_cycle;Max_cycle;Signal;HPM_P1;HPM_P2
2023/01/29 00:00:14;;;;;;;7.75;6.95;;;;;;;1.27;100.00;101713.91;5038452;28;20185;-78
2023/01/29 00:02:40;;;;;;;8.00;6.90;;;;;;;1.19;100.00;101721.75;5038598;28;20201;-79
2023/01/29 00:05:09;;;;;;;8.82;6.80;;;;;;;1.15;100.00;101725.22;5038121;28;20194;-78
2023/01/29 00:07:36;;;;;;;8.68;6.25;;;;;;;1.19;100.00;101734.13;5037715;28;20219;-79
2023/01/29 00:10:02;;;;;;;8.80;6.85;;;;;;;1.18;100.00;101732.38;5038566;28;20196;-78
2023/01/29 00:12:29;;;;;;;7.97;6.43;;;;;;;1.17;100.00;101733.22;5037516;28;20241;-76
2023/01/29 00:14:56;;;;;;;7.57;6.70;;;;;;;1.16;100.00;101734.09;5037110;28;20211;-78
2023/01/29 00:17:22;;;;;;;9.65;7.07;;;;;;;1.22;100.00;101742.13;5037623;28;20221;-78
2023/01/29 00:19:49;;;;;;;10.23;6.93;;;;;;;1.17;100.00;101733.22;5037033;28;20193;-78
2023/01/29 00:22:17;;;;;;;7.15;6.43;;;;;;;1.19;100.00;101739.44;5037573;28;20253;-77
2023/01/29 00:24:44;;;;;;;8.70;7.22;;;;;;;1.20;100.00;101744.78;5032180;28;20253;-79
2023/01/29 00:27:11;;;;;;;8.82;6.60;;;;;;;1.22;100.00;101743.06;5024498;28;20605;-79
2023/01/29 00:29:37;;;;;;;9.40;6.68;;;;;;;1.21;100.00;101756.28;5026176;28;20209;-77
2023/01/29 00:32:04;;;;;;;10.00;7.03;;;;;;;1.11;100.00;101764.97;5026231;28;20287;-79
2023/01/29 00:34:30;;;;;;;8.27;6.55;;;;;;;1.05;100.00;101757.81;5026979;28;20237;-78
2023/01/29 00:37:03;;;;;;;9.27;7.20;;;;;;;1.06;100.00;101754.28;5024355;28;20289;-79
2023/01/29 00:39:37;;;;;;;9.57;7.57;;;;;;;1.11;100.00;101749.03;5030333;28;20235;-80
2023/01/29 00:44:57;;;;;;;6.90;6.20;;;;;;;1.20;100.00;101758.06;5039605;28;20238;-79
2023/01/29 00:47:32;;;;;;;7.75;5.80;;;;;;;1.11;100.00;101743.75;5049738;28;20338;-79
2023/01/29 00:49:59;;;;;;;13.23;6.80;;;;;;;1.06;100.00;101745.44;5048507;28;20185;-80
2023/01/29 00:52:26;;;;;;;9.50;6.80;;;;;;;1.12;100.00;101740.25;5046756;28;20286;-78
2023/01/29 00:54:56;;;;;;;7.82;5.90;;;;;;;1.11;100.00;101731.38;5044317;28;20291;-78
2023/01/29 00:57:23;;;;;;;10.00;6.57;;;;;;;1.03;100.00;101727.72;5045796;28;20685;-80
2023/01/29 00:59:50;;;;;;;8.13;7.15;;;;;;;1.00;100.00;101736.53;5046999;28;20644;-80
2023/01/29 01:05:02;;;;;;;8.93;7.35;;;;;;;0.99;100.00;101736.50;5048247;28;20196;-79
2023/01/29 01:07:29;;;;;;;7.50;6.40;;;;;;;0.95;100.00;101734.66;5048114;28;20289;-77
2023/01/29 01:12:41;;;;;;;8.60;6.50;;;;;;;0.89;100.00;101716.91;5055565;28;20239;-77
2023/01/29 01:15:08;;;;;;;7.53;6.60;;;;;;;0.85;100.00;101719.47;5054492;28;20191;-79
2023/01/29 01:17:35;;;;;;;11.55;7.55;;;;;;;0.85;100.00;101723.03;5046803;28;20230;-79
2023/01/29 01:20:02;;;;;;;8.85;7.40;;;;;;;0.88;100.00;101727.47;5051832;28;20232;-79
2023/01/29 01:22:28;;;;;;;8.20;7.00;;;;;;;0.94;100.00;101720.50;5052225;28;20255;-79
2023/01/29 01:24:56;;;;;;;9.52;7.43;;;;;;;0.93;100.00;101721.38;5051543;28;20558;-79
2023/01/29 01:27:24;;;;;;;8.85;7.78;;;;;;;0.93;100.00;101721.38;5052550;28;20219;-80
2023/01/29 01:29:51;;;;;;;9.20;7.43;;;;;;;0.91;100.00;101717.81;5052497;28;20211;-80
2023/01/29 01:32:17;;;;;;;11.07;7.10;;;;;;;0.90;100.00;101717.78;5060671;28;20277;-78
2023/01/29 01:34:44;;;;;;;8.82;7.00;;;;;;;1.01;100.00;101709.09;5062709;28;20256;-78
2023/01/29 01:37:11;;;;;;;9.07;7.78;;;;;;;1.02;100.00;101699.41;5063404;28;20323;-77
2023/01/29 01:39:38;;;;;;;9.98;6.95;;;;;;;1.01;100.00;101700.28;5063029;28;20218;-78
2023/01/29 01:42:12;;;;;;;7.72;6.38;;;;;;;0.97;100.00;101693.13;5059450;28;20202;-77
2023/01/29 01:44:59;;;;;;;9.77;7.45;;;;;;;0.93;100.00;101696.63;5056769;28;20263;-80
2023/01/29 01:47:32;;;;;;;9.00;7.38;;;;;;;0.76;100.00;101683.97;5055933;28;20226;-77
2023/01/29 01:50:06;;;;;;;9.63;6.00;;;;;;;0.69;100.00;101668.84;5050694;28;20228;-79
2023/01/29 01:52:36;;;;;;;8.05;6.32;;;;;;;0.69;100.00;101681.22;5051756;28;20280;-78
2023/01/29 01:55:03;;;;;;;9.15;7.00;;;;;;;0.56;100.00;101672.19;5050831;28;20250;-80
2023/01/29 01:57:32;;;;;;;9.23;7.35;;;;;;;0.48;100.00;101681.78;5064423;22;20341;-76
2023/01/29 02:00:08;;;;;;;10.77;7.28;;;;;;;0.32;100.00;101675.34;5058983;28;20209;-76
2023/01/29 02:10:52;;;;;;;7.70;6.20;;;;;;;0.13;100.00;101677.63;5059300;28;20197;-76
2023/01/29 02:13:21;;;;;;;10.05;6.05;;;;;;;0.04;100.00;101669.53;5059454;28;20224;-75
2023/01/29 02:15:48;;;;;;;7.53;6.55;;;;;;;-0.07;100.00;101672.00;5058527;28;20204;-76
2023/01/29 02:18:17;;;;;;;8.07;6.65;;;;;;;0.01;100.00;101666.84;5058955;28;20212;-76
2023/01/29 02:20:48;;;;;;;9.15;6.65;;;;;;;-0.03;100.00;101671.16;5059823;28;20282;-77
2023/01/29 02:23:34;;;;;;;9.00;6.55;;;;;;;-0.08;100.00;101677.25;5059054;28;20194;-77
2023/01/29 02:26:31;;;;;;;8.18;6.10;;;;;;;-0.08;100.00;101679.91;5078559;28;20232;-76
2023/01/29 02:29:21;;;;;;;8.15;6.18;;;;;;;-0.08;100.00;101677.25;5074503;28;20313;-77
2023/01/29 02:31:56;;;;;;;8.02;6.18;;;;;;;-0.07;100.00;101679.03;5075340;28;20267;-76
2023/01/29 02:34:31;;;;;;;9.35;7.20;;;;;;;-0.13;100.00;101685.13;5075871;28;20216;-76
2023/01/29 02:37:04;;;;;;;7.90;6.68;;;;;;;-0.10;100.00;101681.63;5074803;28;20219;-76
2023/01/29 02:39:37;;;;;;;9.40;7.43;;;;;;;-0.14;100.00;101693.91;5076163;28;20198;-76
2023/01/29 02:42:13;;;;;;;8.02;6.25;;;;;;;-0.12;100.00;101696.59;5076017;28;20196;-76
2023/01/29 02:44:47;;;;;;;6.72;6.03;;;;;;;-0.12;100.00;101697.50;5076154;28;20271;-75
2023/01/29 02:47:21;;;;;;;6.68;5.60;;;;;;;-0.11;100.00;101706.34;5076414;28;20230;-75
2023/01/29 02:49:53;;;;;;;7.00;6.03;;;;;;;-0.03;100.00;101707.38;5076284;28;20251;-76
2023/01/29 02:52:23;;;;;;;9.60;6.93;;;;;;;0.02;100.00;101705.69;5074955;28;20235;-77
2023/01/29 02:54:54;;;;;;;9.20;6.63;;;;;;;0.02;100.00;101710.09;5063216;28;20203;-77
2023/01/29 02:57:24;;;;;;;9.70;6.65;;;;;;;0.12;100.00;101715.59;5054684;28;20752;-76
2023/01/29 02:59:57;;;;;;;9.65;7.40;;;;;;;0.17;100.00;101713.94;5055020;28;20206;-77
2023/01/29 03:02:29;;;;;;;9.23;7.30;;;;;;;0.20;100.00;101714.00;5055470;28;20200;-77
2023/01/29 03:05:00;;;;;;;10.80;7.47;;;;;;;0.07;100.00;101712.00;5054875;28;20674;-75
2023/01/29 03:07:44;;;;;;;7.72;6.40;;;;;;;0.10;100.00;101709.38;5055542;28;20229;-76
2023/01/29 03:10:18;;;;;;;10.20;6.80;;;;;;;0.11;100.00;101708.50;5055695;28;20282;-77
2023/01/29 03:12:49;;;;;;;11.90;7.20;;;;;;;0.13;100.00;101697.94;5055994;28;20235;-77
2023/01/29 03:15:24;;;;;;;10.10;7.35;;;;;;;0.11;100.00;101695.25;5055257;28;20742;-76
2023/01/29 03:17:55;;;;;;;8.65;6.57;;;;;;;0.04;100.00;101695.13;5062127;28;20227;-76
2023/01/29 03:20:28;;;;;;;9.45;7.20;;;;;;;-0.11;100.00;101701.06;5078073;28;20231;-76
2023/01/29 03:23:00;;;;;;;7.30;5.95;;;;;;;-0.06;100.00;101702.91;5078446;28;20209;-75
2023/01/29 03:33:53;;;;;;;8.95;6.55;;;;;;;-0.09;100.00;101718.75;5059704;28;20349;-77
2023/01/29 03:36:27;;;;;;;10.75;7.45;;;;;;;-0.09;100.00;101716.09;5058826;28;20192;-76
2023/01/29 03:38:53;;;;;;;12.05;7.00;;;;;;;-0.07;100.00;101716.13;5056218;28;20224;-76
2023/01/29 03:41:27;;;;;;;9.05;6.22;;;;;;;-0.12;100.00;101715.13;5057377;28;20199;-76
2023/01/29 03:44:03;;;;;;;10.43;6.32;;;;;;;-0.12;100.00;101709.84;5058965;28;20193;-75
2023/01/29 03:46:36;;;;;;;12.15;7.43;;;;;;;-0.13;100.00;101703.66;5064738;28;20181;-75
2023/01/29 03:49:12;;;;;;;8.00;6.05;;;;;;;-0.12;100.00;101702.78;5070354;28;20267;-75
2023/01/29 03:51:47;;;;;;;8.10;6.75;;;;;;;-0.17;100.00;101703.56;5072766;28;20276;-75
2023/01/29 03:54:21;;;;;;;8.98;6.85;;;;;;;-0.36;100.00;101692.63;5065129;28;20311;-76
2023/01/29 03:56:57;;;;;;;8.43;6.97;;;;;;;-0.31;100.00;101690.06;5064651;28;20273;-76
2023/01/29 03:59:35;;;;;;;8.80;7.25;;;;;;;-0.46;100.00;101699.47;5068386;28;20210;-77
2023/01/29 04:02:10;;;;;;;8.60;6.72;;;;;;;-0.42;100.00;101716.31;5071336;28;20279;-76
2023/01/29 04:04:38;;;;;;;8.23;6.50;;;;;;;-0.40;100.00;101708.41;5069430;28;20249;-76
2023/01/29 04:07:11;;;;;;;8.40;6.38;;;;;;;-0.39;100.00;101705.78;5036102;28;20301;-77
2023/01/29 04:09:44;;;;;;;8.88;5.95;;;;;;;-0.38;100.00;101707.59;5047608;28;20212;-75
2023/01/29 04:12:15;;;;;;;9.10;6.55;;;;;;;-0.40;100.00;101709.31;5039395;28;20269;-77
2023/01/29 04:14:44;;;;;;;9.07;6.43;;;;;;;-0.42;100.00;101703.97;5029108;28;20220;-76
2023/01/29 04:17:16;;;;;;;7.65;6.25;;;;;;;-0.51;100.00;101689.66;5031603;28;20218;-77
2023/01/29 04:19:43;;;;;;;10.27;7.05;;;;;;;-0.46;100.00;101677.41;5031398;28;20201;-76
2023/01/29 04:22:14;;;;;;;10.20;7.30;;;;;;;-0.65;100.00;101671.75;5033706;28;20245;-76
2023/01/29 04:24:41;;;;;;;9.02;6.78;;;;;;;-0.67;100.00;101668.16;5038645;28;20206;-76
2023/01/29 04:27:24;;;;;;;9.65;7.13;;;;;;;-0.82;100.00;101664.31;5041444;28;20232;-75
2023/01/29 04:30:03;;;;;;;8.98;7.18;;;;;;;-1.01;100.00;101677.13;5036207;28;20214;-76
2023/01/29 04:32:41;;;;;;;9.07;7.38;;;;;;;-1.05;100.00;101662.94;5035541;28;20288;-77
2023/01/29 04:35:22;;;;;;;11.82;9.07;;;;;;;-1.16;100.00;101653.88;5036694;28;20564;-77
2023/01/29 04:37:59;;;;;;;8.77;6.88;;;;;;;-1.15;100.00;101657.44;5043039;28;20225;-75
2023/01/29 04:40:31;;;;;;;9.23;6.60;;;;;;;-1.20;100.00;101670.50;5045163;28;20204;-76
2023/01/29 04:43:05;;;;;;;9.68;7.45;;;;;;;-1.26;100.00;101681.84;5042740;28;20183;-75
2023/01/29 04:45:44;;;;;;;11.95;7.25;;;;;;;-1.23;100.00;101685.44;5042921;28;20286;-77
2023/01/29 04:48:22;;;;;;;10.70;8.23;;;;;;;-1.29;100.00;101687.09;5032893;28;20269;-76
2023/01/29 04:50:56;;;;;;;8.77;7.15;;;;;;;-1.20;100.00;101690.78;5033620;28;20207;-76
2023/01/29 04:53:28;;;;;;;10.73;7.18;;;;;;;-1.18;100.00;101692.59;5033380;28;20304;-76
2023/01/29 04:56:00;;;;;;;9.40;7.50;;;;;;;-1.29;100.00;101689.72;5033691;28;20212;-75
2023/01/29 04:58:35;;;;;;;8.80;7.35;;;;;;;-1.31;100.00;101698.47;5032553;28;20819;-77
2023/01/29 05:01:06;;;;;;;10.73;7.95;;;;;;;-1.28;100.00;101694.13;5033181;28;20209;-76
2023/01/29 05:03:37;;;;;;;10.80;6.85;;;;;;;-1.28;100.00;101696.78;5032984;28;20272;-76
2023/01/29 05:06:07;;;;;;;10.30;7.65;;;;;;;-1.32;100.00;101692.28;5032928;28;20206;-76
2023/01/29 05:08:37;;;;;;;14.02;7.65;;;;;;;-1.32;100.00;101689.63;5032246;28;20707;-77
2023/01/29 05:11:04;;;;;;;10.48;7.53;;;;;;;-1.40;100.00;101682.38;5032948;28;20200;-76
2023/01/29 05:13:34;;;;;;;10.25;7.75;;;;;;;-1.48;100.00;101679.56;5032959;28;20326;-77
2023/01/29 05:16:04;;;;;;;9.90;7.47;;;;;;;-1.62;100.00;101686.25;5033342;28;20279;-76
2023/01/29 05:18:32;;;;;;;8.82;6.90;;;;;;;-1.67;100.00;101688.78;5038605;28;20229;-76
2023/01/29 05:21:04;;;;;;;9.63;7.95;;;;;;;-1.66;100.00;101687.03;5038598;28;20197;-76
2023/01/29 05:23:31;;;;;;;9.23;7.45;;;;;;;-1.57;100.00;101684.63;5039016;28;20211;-76
2023/01/29 05:25:58;;;;;;;11.75;7.30;;;;;;;-1.52;100.00;101678.56;5039815;28;20235;-76
2023/01/29 05:28:23;;;;;;;11.13;7.47;;;;;;;-1.38;100.00;101664.81;5038499;28;20229;-75
2023/01/29 05:30:52;;;;;;;8.10;6.70;;;;;;;-1.40;100.00;101664.78;5039626;28;20207;-75
2023/01/29 05:33:20;;;;;;;10.32;7.25;;;;;;;-1.45;100.00;101653.19;5037977;28;20229;-75
2023/01/29 05:35:47;;;;;;;9.40;6.97;;;;;;;-1.59;100.00;101655.50;5037512;28;20688;-76
2023/01/29 05:38:15;;;;;;;10.77;6.63;;;;;;;-1.53;100.00;101660.06;5037613;28;20240;-77
2023/01/29 05:40:42;;;;;;;8.10;6.85;;;;;;;-1.56;100.00;101671.47;5038238;28;20297;-77
2023/01/29 05:43:14;;;;;;;11.00;7.32;;;;;;;-1.54;100.00;101680.31;5036217;28;20203;-77
2023/01/29 05:45:41;;;;;;;8.75;6.50;;;;;;;-1.60;100.00;101680.16;5049693;28;20280;-75
2023/01/29 05:48:08;;;;;;;10.40;7.03;;;;;;;-1.55;100.00;101682.91;5051508;28;20220;-75
2023/01/29 05:50:34;;;;;;;10.70;7.90;;;;;;;-1.55;100.00;101685.56;5050579;28;20209;-75
2023/01/29 05:53:01;;;;;;;9.60;7.28;;;;;;;-1.62;100.00;101681.88;5053473;28;20225;-74
2023/01/29 05:55:29;;;;;;;9.50;6.65;;;;;;;-1.58;100.00;101688.09;5053168;28;20209;-75
2023/01/29 05:57:56;;;;;;;11.45;7.60;;;;;;;-1.58;100.00;101689.03;5049169;28;20296;-75
2023/01/29 06:00:23;;;;;;;10.30;7.85;;;;;;;-1.58;100.00;101680.16;5050967;28;20201;-75
2023/01/29 06:02:49;;;;;;;11.20;6.97;;;;;;;-1.56;100.00;101682.03;5053547;28;20233;-75
2023/01/29 06:05:16;;;;;;;10.90;8.27;;;;;;;-1.61;100.00;101675.72;5056384;28;20268;-76
2023/01/29 06:07:44;;;;;;;10.75;7.60;;;;;;;-1.66;100.00;101681.75;5056355;28;20287;-75
2023/01/29 06:10:12;;;;;;;12.15;7.78;;;;;;;-1.63;100.00;101681.81;5056706;28;20206;-75
2023/01/29 06:12:40;;;;;;;10.00;7.72;;;;;;;-1.53;100.00;101673.28;5055938;28;20204;-75
2023/01/29 06:15:07;;;;;;;11.60;7.13;;;;;;;-1.42;100.00;101681.47;5055648;28;20272;-76
2023/01/29 06:17:34;;;;;;;10.25;7.05;;;;;;;-1.39;100.00;101692.09;5054922;28;20260;-76
2023/01/29 06:20:01;;;;;;;10.48;7.78;;;;;;;-1.33;100.00;101687.84;5056634;28;20208;-75
2023/01/29 06:22:27;;;;;;;9.73;7.65;;;;;;;-1.20;100.00;101677.56;5055796;28;20289;-76
2023/01/29 06:24:54;;;;;;;8.52;6.90;;;;;;;-1.12;100.00;101676.00;5045533;28;20351;-77
2023/01/29 06:27:20;;;;;;;12.68;8.45;;;;;;;-1.13;100.00;101672.47;5036604;28;20231;-75
2023/01/29 06:29:48;;;;;;;10.68;7.63;;;;;;;-1.21;100.00;101675.78;5035969;28;20239;-76
2023/01/29 06:32:15;;;;;;;9.20;7.20;;;;;;;-1.23;100.00;101680.16;5035657;28;20211;-77
2023/01/29 06:34:41;;;;;;;9.68;6.82;;;;;;;-1.17;100.00;101670.59;5035517;28;20312;-75
2023/01/29 06:37:08;;;;;;;8.35;5.70;;;;;;;-1.20;100.00;101665.22;5035893;28;20221;-76
2023/01/29 06:39:34;;;;;;;9.10;6.72;;;;;;;-1.30;100.00;101657.97;5035414;28;20200;-77
2023/01/29 06:42:01;;;;;;;9.75;6.85;;;;;;;-1.31;100.00;101661.47;5036106;28;20201;-77
2023/01/29 06:44:27;;;;;;;7.35;5.90;;;;;;;-1.18;100.00;101662.63;5037772;28;20204;-77
2023/01/29 06:46:55;;;;;;;9.05;6.85;;;;;;;-1.17;100.00;101667.97;5036856;28;20574;-77
2023/01/29 06:49:22;;;;;;;9.15;6.85;;;;;;;-1.15;100.00;101668.00;5035997;28;20204;-76
2023/01/29 06:51:48;;;;;;;7.32;6.07;;;;;;;-1.14;100.00;101665.38;5036331;28;20351;-76
2023/01/29 06:54:15;;;;;;;10.60;6.50;;;;;;;-1.08;100.00;101668.16;5042366;28;20251;-76
2023/01/29 06:56:41;;;;;;;10.75;7.30;;;;;;;-1.16;100.00;101671.50;5056496;28;20201;-74
2023/01/29 06:59:08;;;;;;;12.18;7.22;;;;;;;-1.07;100.00;101674.34;5055247;28;20239;-74
2023/01/29 07:01:35;;;;;;;9.68;7.10;;;;;;;-1.05;100.00;101669.97;5057993;28;20190;-75
2023/01/29 07:04:03;;;;;;;9.60;7.30;;;;;;;-0.98;100.00;101679.84;5057509;28;20232;-74
2023/01/29 07:06:30;;;;;;;10.60;7.10;;;;;;;-0.87;100.00;101685.38;5058498;28;20213;-75
2023/01/29 07:08:57;;;;;;;9.18;6.63;;;;;;;-0.79;100.00;101686.44;5054253;28;20232;-75
2023/01/29 07:11:24;;;;;;;10.15;7.38;;;;;;;-0.77;100.00;101686.44;5054558;28;20250;-74
2023/01/29 07:13:50;;;;;;;9.18;6.65;;;;;;;-0.87;100.00;101696.84;5053695;28;20213;-75
2023/01/29 07:16:17;;;;;;;9.50;7.00;;;;;;;-0.79;100.00;101712.91;5051944;28;20272;-75
2023/01/29 07:18:44;;;;;;;9.13;6.80;;;;;;;-0.78;100.00;101705.84;5053110;28;20221;-77
2023/01/29 07:21:12;;;;;;;10.88;6.95;;;;;;;-0.78;100.00;101708.50;5054580;28;20205;-75
2023/01/29 07:23:38;;;;;;;9.88;7.20;;;;;;;-0.72;100.00;101708.63;5056109;28;20200;-77
2023/01/29 07:26:06;;;;;;;10.90;7.50;;;;;;;-0.80;100.00;101704.91;5056095;28;20204;-75
2023/01/29 07:28:36;;;;;;;11.30;8.05;;;;;;;-0.80;100.00;101705.81;5055032;28;20285;-76
2023/01/29 07:31:03;;;;;;;10.98;7.45;;;;;;;-0.78;100.00;101706.72;5055703;28;20209;-76
2023/01/29 07:33:30;;;;;;;8.90;7.03;;;;;;;-0.73;100.00;101704.19;5053478;28;20346;-75
2023/01/29 07:35:57;;;;;;;11.05;8.05;;;;;;;-0.69;100.00;101712.22;5039427;28;20198;-75
2023/01/29 07:38:25;;;;;;;100.25;54.30;;;;;;;-0.68;100.00;101721.97;5040721;28;20287;-75
2023/01/29 07:40:52;;;;;;;47.85;27.45;;;;;;;-0.56;100.00;101717.78;5043121;28;20232;-74
2023/01/29 07:43:18;;;;;;;12.98;9.38;;;;;;;-0.49;100.00;101717.94;5040614;28;20214;-75
2023/01/29 07:45:45;;;;;;;13.18;8.38;;;;;;;-0.44;100.00;101716.28;5040983;28;20282;-75
2023/01/29 07:48:13;;;;;;;13.82;7.78;;;;;;;-0.49;100.00;101694.13;5042376;28;20223;-76
2023/01/29 07:50:40;;;;;;;10.90;8.65;;;;;;;-0.47;100.00;101688.88;5038946;28;20215;-74
2023/01/29 07:53:07;;;;;;;9.65;6.95;;;;;;;-0.48;100.00;101681.78;5040090;28;20205;-76
2023/01/29 07:55:35;;;;;;;10.00;7.88;;;;;;;-0.34;100.00;101682.03;5041499;28;20666;-76
2023/01/29 07:58:03;;;;;;;11.35;8.85;;;;;;;-0.29;100.00;101681.28;5041552;28;20543;-76
2023/01/29 08:00:31;;;;;;;65.50;35.40;;;;;;;-0.44;100.00;101675.69;5034509;28;20204;-66
2023/01/29 08:03:02;;;;;;;25.88;15.20;;;;;;;-0.46;100.00;101670.34;5035690;28;20287;-75
2023/01/29 08:05:29;;;;;;;13.80;10.07;;;;;;;-0.19;100.00;101682.34;5049057;28;20245;-76
2023/01/29 08:07:55;;;;;;;13.85;10.20;;;;;;;-0.13;100.00;101686.88;5048488;28;20228;-75
2023/01/29 08:10:22;;;;;;;15.98;10.57;;;;;;;0.23;100.00;101693.69;5042491;28;20758;-77
2023/01/29 08:12:55;;;;;;;15.00;9.80;;;;;;;0.86;100.00;101695.66;5043927;28;20204;-75
2023/01/29 08:15:22;;;;;;;20.00;11.23;;;;;;;1.38;100.00;101691.06;5049554;28;20233;-75
2023/01/29 08:17:49;;;;;;;25.77;15.32;;;;;;;1.38;100.00;101707.00;5050288;28;20289;-74
2023/01/29 08:20:15;;;;;;;16.98;10.35;;;;;;;1.54;100.00;101709.81;5049378;28;20231;-75
2023/01/29 08:22:42;;;;;;;15.80;11.38;;;;;;;1.56;100.00;101708.06;5050774;28;20199;-75
2023/01/29 08:25:09;;;;;;;17.75;12.23;;;;;;;1.59;100.00;101702.81;5052439;28;20217;-75
2023/01/29 08:27:36;;;;;;;14.52;9.65;;;;;;;1.55;100.00;101699.22;5050833;28;20500;-75
2023/01/29 08:30:05;;;;;;;12.73;9.05;;;;;;;1.39;100.00;101689.28;5050907;28;20227;-76
2023/01/29 08:32:32;;;;;;;11.27;9.75;;;;;;;1.23;100.00;101690.84;5050886;28;20234;-76
2023/01/29 08:34:59;;;;;;;14.60;10.00;;;;;;;1.31;100.00;101691.88;5051092;28;20228;-74
2023/01/29 08:37:26;;;;;;;13.65;10.35;;;;;;;1.62;100.00;101686.91;5051520;28;20232;-73
2023/01/29 08:39:52;;;;;;;13.25;9.75;;;;;;;1.42;100.00;101686.66;5051512;28;20592;-73
2023/01/29 08:42:19;;;;;;;15.70;10.63;;;;;;;1.60;100.00;101691.31;5052490;28;20862;-76
2023/01/29 08:44:45;;;;;;;15.10;10.10;;;;;;;1.76;100.00;101703.00;5044184;28;20223;-74
2023/01/29 08:47:13;;;;;;;18.13;11.13;;;;;;;1.98;100.00;101704.16;5035064;28;20233;-75
2023/01/29 08:49:40;;;;;;;15.50;10.60;;;;;;;2.03;100.00;101703.31;5034134;28;20594;-76
2023/01/29 08:52:06;;;;;;;13.50;9.93;;;;;;;1.87;100.00;101699.59;5034741;28;20319;-72
2023/01/29 08:54:33;;;;;;;13.43;10.60;;;;;;;1.85;100.00;101690.75;5033224;28;20227;-77
2023/01/29 08:56:59;;;;;;;18.13;12.02;;;;;;;1.76;100.00;101693.28;5034465;28;20206;-76
2023/01/29 08:59:26;;;;;;;20.08;12.30;;;;;;;1.72;100.00;101710.06;5034805;28;20181;-74
2023/01/29 09:01:52;;;;;;;19.20;12.98;;;;;;;1.72;100.00;101710.06;5032264;28;20212;-73
2023/01/29 09:04:20;;;;;;;22.85;16.00;;;;;;;1.73;100.00;101703.88;5035410;28;20291;-76
2023/01/29 09:06:47;;;;;;;17.05;12.13;;;;;;;1.69;100.00;101699.38;5033288;28;20556;-76
2023/01/29 09:09:14;;;;;;;24.52;15.65;;;;;;;1.61;100.00;101704.63;5034231;28;20205;-75
2023/01/29 09:11:40;;;;;;;25.92;15.43;;;;;;;1.53;100.00;101724.88;5036632;28;20621;-73
2023/01/29 09:14:08;;;;;;;14.35;10.45;;;;;;;1.28;100.00;101726.31;5036219;28;20205;-74
2023/01/29 09:16:35;;;;;;;13.55;10.30;;;;;;;1.19;100.00;101731.50;5036630;28;20204;-74
2023/01/29 09:19:01;;;;;;;16.65;11.02;;;;;;;1.23;100.00;101746.59;5033796;28;20230;-74
2023/01/29 09:21:29;;;;;;;14.70;10.63;;;;;;;1.24;100.00;101745.72;5034405;28;20225;-74
2023/01/29 09:23:56;;;;;;;12.10;9.82;;;;;;;1.37;100.00;101745.00;5033407;28;20311;-73
2023/01/29 09:26:22;;;;;;;13.77;10.88;;;;;;;1.45;100.00;101746.03;5033798;28;20274;-74
2023/01/29 09:28:49;;;;;;;13.80;9.98;;;;;;;1.46;100.00;101753.09;5032809;28;20260;-74
2023/01/29 09:31:16;;;;;;;12.27;9.60;;;;;;;1.51;100.00;101747.84;5032379;28;20673;-75
2023/01/29 09:33:42;;;;;;;14.35;9.60;;;;;;;1.39;100.00;101751.25;5033464;28;20685;-73
2023/01/29 09:36:09;;;;;;;15.07;10.57;;;;;;;1.41;100.00;101754.81;5036560;28;20235;-74
2023/01/29 09:38:37;;;;;;;15.35;11.50;;;;;;;1.37;100.00;101771.56;5036510;28;20302;-75
2023/01/29 09:41:16;;;;;;;15.38;11.07;;;;;;;1.39;100.00;101755.66;5037593;28;20681;-74
2023/01/29 09:43:47;;;;;;;12.60;9.65;;;;;;;1.33;100.00;101761.75;5043739;28;20203;-75
2023/01/29 09:46:20;;;;;;;15.70;10.10;;;;;;;0.79;100.00;101760.97;5038419;28;20190;-76
2023/01/29 09:48:50;;;;;;;11.40;9.00;;;;;;;0.73;100.00;101757.31;5037483;28;20251;-75
2023/01/29 09:51:27;;;;;;;12.90;8.88;;;;;;;0.71;100.00;101748.44;5038405;28;20694;-76
2023/01/29 09:54:04;;;;;;;14.10;8.75;;;;;;;0.72;100.00;101744.91;5036521;28;20234;-76
2023/01/29 09:56:31;;;;;;;11.70;8.73;;;;;;;0.54;100.00;101749.06;5039951;28;20233;-74
2023/01/29 09:58:59;;;;;;;13.05;10.23;;;;;;;0.58;100.00;101755.28;5035996;28;20314;-75
2023/01/29 10:01:33;;;;;;;14.60;9.20;;;;;;;0.78;100.00;101755.63;5036791;28;20201;-75
2023/01/29 10:04:25;;;;;;;14.13;9.40;;;;;;;0.92;100.00;101762.03;5037134;28;20196;-75
2023/01/29 10:07:05;;;;;;;12.57;9.90;;;;;;;0.85;100.00;101746.91;5037046;28;20640;-76
2023/01/29 10:10:05;;;;;;;14.40;9.90;;;;;;;1.02;100.00;101740.09;5036396;28;20230;-77
2023/01/29 10:12:49;;;;;;;13.25;8.45;;;;;;;1.14;100.00;101730.53;5037181;28;20673;-76
2023/01/29 10:15:28;;;;;;;11.90;9.43;;;;;;;1.51;100.00;101718.66;5036306;28;20219;-74
2023/01/29 10:18:16;;;;;;;10.70;8.55;;;;;;;1.81;100.00;101703.94;5035832;28;20231;-74
2023/01/29 10:21:01;;;;;;;13.52;9.45;;;;;;;1.53;100.00;101698.31;5036991;28;20203;-74
2023/01/29 10:23:32;;;;;;;14.57;9.38;;;;;;;1.03;100.00;101696.75;5036647;28;20207;-73
2023/01/29 10:26:00;;;;;;;16.60;11.10;;;;;;;1.33;100.00;101689.22;5036235;28;20189;-74
2023/01/29 10:28:34;;;;;;;14.25;9.77;;;;;;;0.98;100.00;101685.19;5034982;28;20232;-75
2023/01/29 10:31:07;;;;;;;13.50;9.60;;;;;;;0.75;100.00;101686.63;5042655;28;20256;-76
2023/01/29 10:33:39;;;;;;;13.60;9.05;;;;;;;0.48;100.00;101687.97;5047810;28;20183;-74
2023/01/29 10:36:11;;;;;;;13.75;8.88;;;;;;;0.29;100.00;101686.75;5040732;28;20226;-74
2023/01/29 10:38:43;;;;;;;14.05;9.43;;;;;;;0.36;100.00;101685.09;5046461;28;20233;-74
2023/01/29 10:41:38;;;;;;;15.70;10.27;;;;;;;0.62;100.00;101674.94;5039133;28;20199;-75
2023/01/29 10:44:20;;;;;;;15.40;9.82;;;;;;;0.72;100.00;101670.66;5041032;28;20211;-74
2023/01/29 10:47:07;;;;;;;14.35;9.93;;;;;;;0.73;100.00;101668.03;5041647;28;20268;-74
2023/01/29 10:50:00;;;;;;;17.70;11.05;;;;;;;0.99;100.00;101668.41;5039425;28;20233;-76
2023/01/29 10:52:39;;;;;;;10.82;9.07;;;;;;;1.13;100.00;101651.78;5043242;28;20270;-74
2023/01/29 10:55:21;;;;;;;14.80;10.30;;;;;;;1.32;100.00;101651.16;5045222;28;20257;-73
2023/01/29 10:58:03;;;;;;;14.55;10.13;;;;;;;1.84;100.00;101642.91;5046306;28;20714;-73
2023/01/29 11:00:35;;;;;;;14.90;10.32;;;;;;;2.05;100.00;101639.56;5045014;28;20206;-74
2023/01/29 11:03:14;;;;;;;14.40;10.40;;;;;;;2.44;100.00;101630.13;5045546;28;20660;-75
2023/01/29 11:05:50;;;;;;;16.20;11.57;;;;;;;2.28;100.00;101627.38;5045172;28;20195;-76
2023/01/29 11:08:21;;;;;;;14.55;10.30;;;;;;;2.21;100.00;101625.50;5043838;28;20227;-72
2023/01/29 11:10:57;;;;;;;13.00;9.95;;;;;;;2.02;100.00;101616.50;5045650;28;20215;-74
2023/01/29 11:13:30;;;;;;;16.15;10.80;;;;;;;2.02;100.00;101621.81;5037332;28;20213;-76
2023/01/29 11:15:57;;;;;;;14.23;10.40;;;;;;;2.79;100.00;101610.88;5036930;28;20307;-76
2023/01/29 11:18:23;;;;;;;14.38;10.70;;;;;;;2.97;100.00;101607.44;5038675;28;20302;-74
2023/01/29 11:21:03;;;;;;;16.00;11.23;;;;;;;3.75;100.00;101608.59;5037770;28;20205;-75
2023/01/29 11:23:31;;;;;;;14.68;11.88;;;;;;;4.22;100.00;101601.53;5037568;28;20191;-76
2023/01/29 11:25:59;;;;;;;17.23;12.38;;;;;;;4.80;94.03;101595.22;5045132;28;20299;-75
2023/01/29 11:28:38;;;;;;;15.32;11.20;;;;;;;5.09;89.77;101597.81;5045800;28;20240;-76
2023/01/29 11:31:20;;;;;;;18.98;13.45;;;;;;;6.57;83.41;101596.84;5048271;28;20622;-75
2023/01/29 11:33:48;;;;;;;17.58;13.55;;;;;;;7.96;66.39;101604.03;5047037;28;20212;-74
2023/01/29 11:36:34;;;;;;;19.15;14.60;;;;;;;7.88;62.89;101599.69;5051317;28;20295;-76
2023/01/29 11:39:19;;;;;;;15.88;12.52;;;;;;;6.71;68.89;101584.22;5053990;28;20224;-73
2023/01/29 11:41:49;;;;;;;14.55;11.90;;;;;;;5.27;75.30;101582.59;5049956;28;20265;-73
2023/01/29 11:44:30;;;;;;;13.18;11.25;;;;;;;3.88;89.38;101588.16;5045240;28;20217;-76
2023/01/29 11:47:09;;;;;;;14.45;11.10;;;;;;;2.94;99.62;101592.34;5040043;28;20236;-75
2023/01/29 11:49:37;;;;;;;16.88;12.23;;;;;;;2.48;100.00;101584.06;5040582;28;20205;-76
2023/01/29 11:52:07;;;;;;;15.15;12.65;;;;;;;2.26;100.00;101562.66;5039758;28;20690;-76
2023/01/29 11:54:38;;;;;;;15.75;12.15;;;;;;;2.68;100.00;101561.16;5038538;28;20207;-75